sensor_id;sensor_type;location;lat;lon;timestamp;temperature;humidity
11399;DHT22;5755;48.116;11.608;2022-10-18T00:57:54;11.40;99.90
11399;DHT22;5755;48.116;11.608;2022-10-18T01:10:10;11.30;99.90
11399;DHT22;5755;48.116;11.608;2022-10-18T01:13:02;11.20;99.90
11399;DHT22;5755;48.116;11.608;2022-10-18T01:19:12;11.10;99.90
11399;DHT22;5755;48.116;11.608;2022-10-18T01:28:51;10.90;99.90
11399;DHT22;5755;48.116;11.608;2022-10-18T01:48:04;10.80;99.90
11399;DHT22;5755;48.116;11.608;2022-10-18T01:53:54;10.80;99.90
11399;DHT22;5755;48.116;11.608;2022-10-18T02:03:41;10.70;99.90
11399;DHT22;5755;48.116;11.608;2022-10-18T02:06:17;10.80;99.90
11399;DHT22;5755;48.116;11.608;2022-10-18T02:19:17;10.70;99.90
11399;DHT22;5755;48.116;11.608;2022-10-18T02:22:15;10.60;99.90
11399;DHT22;5755;48.116;11.608;2022-10-18T02:24:58;10.70;99.90
11399;DHT22;5755;48.116;11.608;2022-10-18T02:34:24;10.70;99.90
11399;DHT22;5755;48.116;11.608;2022-10-18T02:37:28;10.70;99.90
11399;DHT22;5755;48.116;11.608;2022-10-18T02:39:56;10.70;99.90
11399;DHT22;5755;48.116;11.608;2022-10-18T02:45:47;10.80;99.90
11399;DHT22;5755;48.116;11.608;2022-10-18T02:48:26;10.80;99.90
11399;DHT22;5755;48.116;11.608;2022-10-18T02:54:17;10.60;99.90
11399;DHT22;5755;48.116;11.608;2022-10-18T03:03:28;10.60;99.90
11399;DHT22;5755;48.116;11.608;2022-10-18T03:05:56;10.60;99.90
11399;DHT22;5755;48.116;11.608;2022-10-18T03:11:46;10.50;99.90
11399;DHT22;5755;48.116;11.608;2022-10-18T03:14:32;10.50;99.90
11399;DHT22;5755;48.116;11.608;2022-10-18T03:17:09;10.60;99.90
11399;DHT22;5755;48.116;11.608;2022-10-18T03:19:38;10.50;99.90
11399;DHT22;5755;48.116;11.608;2022-10-18T03:25:26;10.50;99.90
11399;DHT22;5755;48.116;11.608;2022-10-18T03:31:19;10.40;99.90
11399;DHT22;5755;48.116;11.608;2022-10-18T03:43:31;10.30;99.90
11399;DHT22;5755;48.116;11.608;2022-10-18T04:02:18;10.30;99.90
11399;DHT22;5755;48.116;11.608;2022-10-18T04:08:07;10.30;99.90
11399;DHT22;5755;48.116;11.608;2022-10-18T04:10:45;10.30;99.90
11399;DHT22;5755;48.116;11.608;2022-10-18T04:20:29;10.40;99.90
11399;DHT22;5755;48.116;11.608;2022-10-18T04:22:57;10.40;99.90
11399;DHT22;5755;48.116;11.608;2022-10-18T04:28:45;10.40;99.90
11399;DHT22;5755;48.116;11.608;2022-10-18T04:31:27;10.40;99.90
11399;DHT22;5755;48.116;11.608;2022-10-18T04:33:54;10.40;99.90
11399;DHT22;5755;48.116;11.608;2022-10-18T04:39:46;10.50;99.90
11399;DHT22;5755;48.116;11.608;2022-10-18T04:45:37;10.60;99.90
11399;DHT22;5755;48.116;11.608;2022-10-18T04:48:20;10.80;99.90
11399;DHT22;5755;48.116;11.608;2022-10-18T04:51:03;10.70;99.90
11399;DHT22;5755;48.116;11.608;2022-10-18T04:53:39;10.60;99.90
11399;DHT22;5755;48.116;11.608;2022-10-18T04:56:08;10.60;99.90
11399;DHT22;5755;48.116;11.608;2022-10-18T04:58:51;10.60;99.90
11399;DHT22;5755;48.116;11.608;2022-10-18T05:01:18;10.50;99.90
11399;DHT22;5755;48.116;11.608;2022-10-18T05:03:45;10.30;99.90
11399;DHT22;5755;48.116;11.608;2022-10-18T05:06:12;10.20;99.90
11399;DHT22;5755;48.116;11.608;2022-10-18T05:18:47;10.20;99.90
11399;DHT22;5755;48.116;11.608;2022-10-18T05:24:49;10.20;99.90
11399;DHT22;5755;48.116;11.608;2022-10-18T05:30:41;10.20;99.90
11399;DHT22;5755;48.116;11.608;2022-10-18T05:40:16;10.40;99.90
11399;DHT22;5755;48.116;11.608;2022-10-18T05:42:55;10.40;99.90
11399;DHT22;5755;48.116;11.608;2022-10-18T05:48:49;10.50;99.90
11399;DHT22;5755;48.116;11.608;2022-10-18T05:54:38;10.50;99.90
11399;DHT22;5755;48.116;11.608;2022-10-18T06:00:35;10.70;99.90
11399;DHT22;5755;48.116;11.608;2022-10-18T06:30:23;12.00;99.10
11399;DHT22;5755;48.116;11.608;2022-10-18T06:36:17;12.40;98.60
11399;DHT22;5755;48.116;11.608;2022-10-18T06:42:31;12.50;98.50
11399;DHT22;5755;48.116;11.608;2022-10-18T06:52:26;12.90;96.60
11399;DHT22;5755;48.116;11.608;2022-10-18T06:58:16;12.90;97.30
11399;DHT22;5755;48.116;11.608;2022-10-18T07:04:07;13.00;97.30
11399;DHT22;5755;48.116;11.608;2022-10-18T07:06:33;13.10;97.50
11399;DHT22;5755;48.116;11.608;2022-10-18T07:12:40;13.20;96.90
11399;DHT22;5755;48.116;11.608;2022-10-18T07:32:16;14.30;95.30
11399;DHT22;5755;48.116;11.608;2022-10-18T07:38:26;14.80;94.10
11399;DHT22;5755;48.116;11.608;2022-10-18T07:40:57;14.90;93.80
11399;DHT22;5755;48.116;11.608;2022-10-18T07:43:27;15.10;93.90
11399;DHT22;5755;48.116;11.608;2022-10-18T07:45:55;15.30;93.40
11399;DHT22;5755;48.116;11.608;2022-10-18T07:51:47;15.60;91.60
11399;DHT22;5755;48.116;11.608;2022-10-18T08:06:42;16.20;90.00
11399;DHT22;5755;48.116;11.608;2022-10-18T08:12:32;16.40;90.50
11399;DHT22;5755;48.116;11.608;2022-10-18T08:18:39;16.70;86.10
11399;DHT22;5755;48.116;11.608;2022-10-18T08:21:32;16.80;84.90
11399;DHT22;5755;48.116;11.608;2022-10-18T08:24:09;16.80;82.70
11399;DHT22;5755;48.116;11.608;2022-10-18T08:26:56;16.80;82.90
11399;DHT22;5755;48.116;11.608;2022-10-18T08:29:52;16.90;83.20
11399;DHT22;5755;48.116;11.608;2022-10-18T08:32:27;17.10;82.50
11399;DHT22;5755;48.116;11.608;2022-10-18T08:35:09;17.30;81.60
11399;DHT22;5755;48.116;11.608;2022-10-18T08:38:02;17.50;79.00
11399;DHT22;5755;48.116;11.608;2022-10-18T08:40:33;17.60;79.10
11399;DHT22;5755;48.116;11.608;2022-10-18T08:46:24;18.00;79.40
11399;DHT22;5755;48.116;11.608;2022-10-18T08:49:03;18.60;74.70
11399;DHT22;5755;48.116;11.608;2022-10-18T08:51:37;19.30;63.20
11399;DHT22;5755;48.116;11.608;2022-10-18T08:54:20;20.20;56.10
11399;DHT22;5755;48.116;11.608;2022-10-18T08:56:57;21.10;49.10
11399;DHT22;5755;48.116;11.608;2022-10-18T08:59:24;22.10;40.60
11399;DHT22;5755;48.116;11.608;2022-10-18T09:02:01;22.50;35.00
11399;DHT22;5755;48.116;11.608;2022-10-18T09:04:39;23.40;32.40
11399;DHT22;5755;48.116;11.608;2022-10-18T09:07:44;24.30;28.10
11399;DHT22;5755;48.116;11.608;2022-10-18T09:10:21;24.70;26.00
11399;DHT22;5755;48.116;11.608;2022-10-18T09:13:16;25.60;24.80
11399;DHT22;5755;48.116;11.608;2022-10-18T09:15:48;26.30;23.50
11399;DHT22;5755;48.116;11.608;2022-10-18T09:18:35;26.60;21.50
11399;DHT22;5755;48.116;11.608;2022-10-18T09:21:18;27.10;19.60
11399;DHT22;5755;48.116;11.608;2022-10-18T09:23:48;28.00;16.30
11399;DHT22;5755;48.116;11.608;2022-10-18T09:26:17;27.80;17.70
11399;DHT22;5755;48.116;11.608;2022-10-18T09:28:54;27.20;18.20
11399;DHT22;5755;48.116;11.608;2022-10-18T09:31:30;26.80;19.20
11399;DHT22;5755;48.116;11.608;2022-10-18T09:34:07;26.60;20.00
11399;DHT22;5755;48.116;11.608;2022-10-18T09:36:39;26.90;19.70
11399;DHT22;5755;48.116;11.608;2022-10-18T09:39:12;26.80;19.80
11399;DHT22;5755;48.116;11.608;2022-10-18T09:41:46;27.50;19.30
11399;DHT22;5755;48.116;11.608;2022-10-18T09:44:17;27.50;19.30
11399;DHT22;5755;48.116;11.608;2022-10-18T09:46:49;27.30;18.50
11399;DHT22;5755;48.116;11.608;2022-10-18T09:49:22;27.30;19.10
11399;DHT22;5755;48.116;11.608;2022-10-18T09:51:50;27.10;18.90
11399;DHT22;5755;48.116;11.608;2022-10-18T09:54:23;27.00;19.10
11399;DHT22;5755;48.116;11.608;2022-10-18T09:56:56;25.80;21.20
11399;DHT22;5755;48.116;11.608;2022-10-18T09:59:35;25.00;24.50
11399;DHT22;5755;48.116;11.608;2022-10-18T10:09:00;24.40;26.10
11399;DHT22;5755;48.116;11.608;2022-10-18T10:11:36;24.40;26.70
11399;DHT22;5755;48.116;11.608;2022-10-18T10:14:13;24.50;26.50
11399;DHT22;5755;48.116;11.608;2022-10-18T10:16:58;24.40;26.10
11399;DHT22;5755;48.116;11.608;2022-10-18T10:20:03;24.60;25.90
11399;DHT22;5755;48.116;11.608;2022-10-18T10:23:04;25.00;23.50
11399;DHT22;5755;48.116;11.608;2022-10-18T10:25:58;25.00;23.60
11399;DHT22;5755;48.116;11.608;2022-10-18T10:32:02;24.10;25.70
11399;DHT22;5755;48.116;11.608;2022-10-18T10:34:57;23.80;27.30
11399;DHT22;5755;48.116;11.608;2022-10-18T10:37:30;23.70;29.20
11399;DHT22;5755;48.116;11.608;2022-10-18T10:40:17;23.70;28.50
11399;DHT22;5755;48.116;11.608;2022-10-18T10:43:02;23.70;28.50
11399;DHT22;5755;48.116;11.608;2022-10-18T10:46:04;23.60;29.30
11399;DHT22;5755;48.116;11.608;2022-10-18T10:48:39;24.00;30.70
11399;DHT22;5755;48.116;11.608;2022-10-18T10:51:09;24.00;29.70
11399;DHT22;5755;48.116;11.608;2022-10-18T10:53:40;24.30;28.70
11399;DHT22;5755;48.116;11.608;2022-10-18T10:56:20;24.40;27.30
11399;DHT22;5755;48.116;11.608;2022-10-18T10:58:51;24.00;28.30
11399;DHT22;5755;48.116;11.608;2022-10-18T11:01:32;23.80;27.90
11399;DHT22;5755;48.116;11.608;2022-10-18T11:04:26;23.50;30.20
11399;DHT22;5755;48.116;11.608;2022-10-18T11:07:05;23.40;29.30
11399;DHT22;5755;48.116;11.608;2022-10-18T11:09:55;23.50;29.30
11399;DHT22;5755;48.116;11.608;2022-10-18T11:12:40;23.30;31.40
11399;DHT22;5755;48.116;11.608;2022-10-18T11:18:35;23.20;30.50
11399;DHT22;5755;48.116;11.608;2022-10-18T11:21:06;23.10;29.90
11399;DHT22;5755;48.116;11.608;2022-10-18T11:23:41;23.20;32.80
11399;DHT22;5755;48.116;11.608;2022-10-18T11:26:29;23.10;32.50
11399;DHT22;5755;48.116;11.608;2022-10-18T11:29:11;23.10;32.60
11399;DHT22;5755;48.116;11.608;2022-10-18T11:35:29;23.10;31.20
11399;DHT22;5755;48.116;11.608;2022-10-18T11:38:11;23.10;31.40
11399;DHT22;5755;48.116;11.608;2022-10-18T11:41:06;23.20;29.60
11399;DHT22;5755;48.116;11.608;2022-10-18T11:44:11;23.30;29.20
11399;DHT22;5755;48.116;11.608;2022-10-18T11:46:50;23.20;30.70
11399;DHT22;5755;48.116;11.608;2022-10-18T11:56:00;22.80;32.70
11399;DHT22;5755;48.116;11.608;2022-10-18T11:58:44;22.80;32.40
11399;DHT22;5755;48.116;11.608;2022-10-18T12:01:21;22.80;32.20
11399;DHT22;5755;48.116;11.608;2022-10-18T12:04:07;22.80;32.40
11399;DHT22;5755;48.116;11.608;2022-10-18T12:06:53;22.60;32.40
11399;DHT22;5755;48.116;11.608;2022-10-18T12:16:07;22.50;34.10
11399;DHT22;5755;48.116;11.608;2022-10-18T12:22:07;22.50;34.10
11399;DHT22;5755;48.116;11.608;2022-10-18T12:24:45;22.50;34.10
11399;DHT22;5755;48.116;11.608;2022-10-18T12:27:32;22.60;34.20
11399;DHT22;5755;48.116;11.608;2022-10-18T12:30:29;22.60;34.20
11399;DHT22;5755;48.116;11.608;2022-10-18T12:33:08;22.60;34.20
11399;DHT22;5755;48.116;11.608;2022-10-18T12:35:50;22.70;34.30
11399;DHT22;5755;48.116;11.608;2022-10-18T12:38:43;22.80;34.40
11399;DHT22;5755;48.116;11.608;2022-10-18T12:41:19;22.80;34.40
11399;DHT22;5755;48.116;11.608;2022-10-18T12:47:31;22.80;34.40
11399;DHT22;5755;48.116;11.608;2022-10-18T12:50:06;22.70;34.40
11399;DHT22;5755;48.116;11.608;2022-10-18T12:53:16;22.70;34.30
11399;DHT22;5755;48.116;11.608;2022-10-18T12:55:49;22.70;34.40
11399;DHT22;5755;48.116;11.608;2022-10-18T12:58:30;22.70;36.40
11399;DHT22;5755;48.116;11.608;2022-10-18T13:01:09;22.70;34.90
11399;DHT22;5755;48.116;11.608;2022-10-18T13:03:52;22.70;34.30
11399;DHT22;5755;48.116;11.608;2022-10-18T13:06:23;22.70;34.30
11399;DHT22;5755;48.116;11.608;2022-10-18T13:09:19;22.60;34.20
11399;DHT22;5755;48.116;11.608;2022-10-18T13:15:01;22.60;34.20
11399;DHT22;5755;48.116;11.608;2022-10-18T13:20:52;22.60;34.20
11399;DHT22;5755;48.116;11.608;2022-10-18T13:23:54;22.50;34.10
11399;DHT22;5755;48.116;11.608;2022-10-18T13:26:39;22.50;34.10
11399;DHT22;5755;48.116;11.608;2022-10-18T13:29:44;22.50;34.10
11399;DHT22;5755;48.116;11.608;2022-10-18T13:32:23;22.50;34.10
11399;DHT22;5755;48.116;11.608;2022-10-18T13:34:57;22.30;34.00
11399;DHT22;5755;48.116;11.608;2022-10-18T13:37:39;22.30;34.00
11399;DHT22;5755;48.116;11.608;2022-10-18T13:40:28;22.40;34.10
11399;DHT22;5755;48.116;11.608;2022-10-18T13:46:03;22.30;34.00
11399;DHT22;5755;48.116;11.608;2022-10-18T13:48:51;22.30;34.00
11399;DHT22;5755;48.116;11.608;2022-10-18T13:51:48;22.40;34.10
11399;DHT22;5755;48.116;11.608;2022-10-18T13:54:49;22.30;34.00
11399;DHT22;5755;48.116;11.608;2022-10-18T13:57:31;22.40;34.80
11399;DHT22;5755;48.116;11.608;2022-10-18T14:03:31;22.60;34.20
11399;DHT22;5755;48.116;11.608;2022-10-18T14:06:03;22.70;34.30
11399;DHT22;5755;48.116;11.608;2022-10-18T14:08:35;22.70;34.30
11399;DHT22;5755;48.116;11.608;2022-10-18T14:11:06;22.70;34.30
11399;DHT22;5755;48.116;11.608;2022-10-18T14:13:46;22.50;34.10
11399;DHT22;5755;48.116;11.608;2022-10-18T14:16:29;22.40;34.10
11399;DHT22;5755;48.116;11.608;2022-10-18T14:22:39;22.30;34.00
11399;DHT22;5755;48.116;11.608;2022-10-18T14:25:19;22.10;35.80
11399;DHT22;5755;48.116;11.608;2022-10-18T14:27:46;21.90;36.80
11399;DHT22;5755;48.116;11.608;2022-10-18T14:30:23;21.80;36.70
11399;DHT22;5755;48.116;11.608;2022-10-18T14:32:51;21.80;37.00
11399;DHT22;5755;48.116;11.608;2022-10-18T14:35:45;21.70;37.90
11399;DHT22;5755;48.116;11.608;2022-10-18T14:38:23;21.50;38.50
11399;DHT22;5755;48.116;11.608;2022-10-18T14:41:27;21.50;39.90
11399;DHT22;5755;48.116;11.608;2022-10-18T14:44:19;21.40;40.80
11399;DHT22;5755;48.116;11.608;2022-10-18T14:47:02;21.30;43.10
11399;DHT22;5755;48.116;11.608;2022-10-18T14:49:41;21.20;47.30
11399;DHT22;5755;48.116;11.608;2022-10-18T14:52:17;21.10;48.40
11399;DHT22;5755;48.116;11.608;2022-10-18T14:54:45;21.10;49.40
11399;DHT22;5755;48.116;11.608;2022-10-18T14:57:18;21.10;52.00
11399;DHT22;5755;48.116;11.608;2022-10-18T14:59:52;21.10;52.30
11399;DHT22;5755;48.116;11.608;2022-10-18T15:02:35;21.00;53.30
11399;DHT22;5755;48.116;11.608;2022-10-18T15:05:18;21.00;52.90
11399;DHT22;5755;48.116;11.608;2022-10-18T15:07:45;21.00;52.30
11399;DHT22;5755;48.116;11.608;2022-10-18T15:10:15;20.90;54.40
11399;DHT22;5755;48.116;11.608;2022-10-18T15:12:43;20.80;54.40
11399;DHT22;5755;48.116;11.608;2022-10-18T15:15:24;20.80;55.40
11399;DHT22;5755;48.116;11.608;2022-10-18T15:17:54;20.60;56.40
11399;DHT22;5755;48.116;11.608;2022-10-18T15:20:23;20.60;56.40
11399;DHT22;5755;48.116;11.608;2022-10-18T15:22:51;20.60;58.00
11399;DHT22;5755;48.116;11.608;2022-10-18T15:25:23;20.50;60.40
11399;DHT22;5755;48.116;11.608;2022-10-18T15:28:28;20.40;58.00
11399;DHT22;5755;48.116;11.608;2022-10-18T15:31:04;20.50;56.30
11399;DHT22;5755;48.116;11.608;2022-10-18T15:33:32;20.50;57.10
11399;DHT22;5755;48.116;11.608;2022-10-18T15:36:08;20.50;57.60
11399;DHT22;5755;48.116;11.608;2022-10-18T15:38:36;20.40;58.60
11399;DHT22;5755;48.116;11.608;2022-10-18T15:41:37;20.40;57.40
11399;DHT22;5755;48.116;11.608;2022-10-18T15:44:16;20.30;59.20
11399;DHT22;5755;48.116;11.608;2022-10-18T15:46:45;20.40;57.70
11399;DHT22;5755;48.116;11.608;2022-10-18T15:55:43;20.30;58.00
11399;DHT22;5755;48.116;11.608;2022-10-18T15:58:15;20.20;58.00
11399;DHT22;5755;48.116;11.608;2022-10-18T16:00:46;20.10;59.30
11399;DHT22;5755;48.116;11.608;2022-10-18T16:03:14;20.10;60.50
11399;DHT22;5755;48.116;11.608;2022-10-18T16:05:42;20.00;62.70
11399;DHT22;5755;48.116;11.608;2022-10-18T16:08:18;20.00;63.80
11399;DHT22;5755;48.116;11.608;2022-10-18T16:10:52;19.90;65.30
11399;DHT22;5755;48.116;11.608;2022-10-18T16:13:19;19.90;65.20
11399;DHT22;5755;48.116;11.608;2022-10-18T16:15:46;19.90;64.90
11399;DHT22;5755;48.116;11.608;2022-10-18T16:18:17;20.00;65.00
11399;DHT22;5755;48.116;11.608;2022-10-18T16:21:15;19.90;65.40
11399;DHT22;5755;48.116;11.608;2022-10-18T16:23:45;19.80;66.30
11399;DHT22;5755;48.116;11.608;2022-10-18T16:26:17;19.80;67.60
11399;DHT22;5755;48.116;11.608;2022-10-18T16:28:45;19.80;68.20
11399;DHT22;5755;48.116;11.608;2022-10-18T16:31:15;19.80;69.80
11399;DHT22;5755;48.116;11.608;2022-10-18T16:33:43;19.90;75.10
11399;DHT22;5755;48.116;11.608;2022-10-18T16:36:13;19.80;77.30
11399;DHT22;5755;48.116;11.608;2022-10-18T16:38:41;19.70;80.60
11399;DHT22;5755;48.116;11.608;2022-10-18T16:41:29;19.60;80.50
11399;DHT22;5755;48.116;11.608;2022-10-18T16:44:03;19.50;83.80
11399;DHT22;5755;48.116;11.608;2022-10-18T16:46:32;19.50;84.70
11399;DHT22;5755;48.116;11.608;2022-10-18T16:49:17;19.50;87.70
11399;DHT22;5755;48.116;11.608;2022-10-18T16:51:44;19.40;90.50
11399;DHT22;5755;48.116;11.608;2022-10-18T16:54:11;19.20;91.20
11399;DHT22;5755;48.116;11.608;2022-10-18T16:56:39;19.10;92.10
11399;DHT22;5755;48.116;11.608;2022-10-18T16:59:08;18.90;92.50
11399;DHT22;5755;48.116;11.608;2022-10-18T17:01:37;18.80;93.60
11399;DHT22;5755;48.116;11.608;2022-10-18T17:04:15;18.80;93.80
11399;DHT22;5755;48.116;11.608;2022-10-18T17:06:53;18.60;94.50
11399;DHT22;5755;48.116;11.608;2022-10-18T17:09:27;18.40;95.50
11399;DHT22;5755;48.116;11.608;2022-10-18T17:11:59;18.30;96.70
11399;DHT22;5755;48.116;11.608;2022-10-18T17:17:47;18.00;97.90
11399;DHT22;5755;48.116;11.608;2022-10-18T17:20:19;18.00;98.90
11399;DHT22;5755;48.116;11.608;2022-10-18T17:22:47;17.90;99.50
11399;DHT22;5755;48.116;11.608;2022-10-18T17:25:21;17.80;99.90
11399;DHT22;5755;48.116;11.608;2022-10-18T17:27:50;17.80;99.90
11399;DHT22;5755;48.116;11.608;2022-10-18T17:33:57;17.60;99.90
11399;DHT22;5755;48.116;11.608;2022-10-18T17:36:51;17.50;99.90
11399;DHT22;5755;48.116;11.608;2022-10-18T17:39:39;17.30;99.90
11399;DHT22;5755;48.116;11.608;2022-10-18T17:42:06;17.40;99.90
11399;DHT22;5755;48.116;11.608;2022-10-18T17:44:35;17.40;99.90
11399;DHT22;5755;48.116;11.608;2022-10-18T17:47:08;17.40;99.90
11399;DHT22;5755;48.116;11.608;2022-10-18T17:50:03;17.40;99.90
11399;DHT22;5755;48.116;11.608;2022-10-18T17:52:33;17.30;99.90
11399;DHT22;5755;48.116;11.608;2022-10-18T17:55:00;17.20;99.90
11399;DHT22;5755;48.116;11.608;2022-10-18T17:57:45;17.10;99.90
11399;DHT22;5755;48.116;11.608;2022-10-18T18:00:17;17.00;99.90
11399;DHT22;5755;48.116;11.608;2022-10-18T18:03:03;16.90;99.90
11399;DHT22;5755;48.116;11.608;2022-10-18T18:09:00;16.90;99.90
11399;DHT22;5755;48.116;11.608;2022-10-18T18:11:41;17.00;99.90
11399;DHT22;5755;48.116;11.608;2022-10-18T18:14:21;17.00;99.90
11399;DHT22;5755;48.116;11.608;2022-10-18T18:16:49;17.10;99.90
11399;DHT22;5755;48.116;11.608;2022-10-18T18:19:47;17.00;99.90
11399;DHT22;5755;48.116;11.608;2022-10-18T18:22:33;17.00;99.90
11399;DHT22;5755;48.116;11.608;2022-10-18T18:25:02;16.90;99.90
11399;DHT22;5755;48.116;11.608;2022-10-18T18:27:45;16.90;99.90
11399;DHT22;5755;48.116;11.608;2022-10-18T18:30:15;16.90;99.90
11399;DHT22;5755;48.116;11.608;2022-10-18T18:32:44;16.90;99.90
11399;DHT22;5755;48.116;11.608;2022-10-18T18:35:15;16.90;99.90
11399;DHT22;5755;48.116;11.608;2022-10-18T18:41:11;16.90;99.90
11399;DHT22;5755;48.116;11.608;2022-10-18T18:44:09;16.80;99.90
11399;DHT22;5755;48.116;11.608;2022-10-18T18:46:39;16.80;99.90
11399;DHT22;5755;48.116;11.608;2022-10-18T18:49:11;16.70;99.90
11399;DHT22;5755;48.116;11.608;2022-10-18T18:51:45;16.70;99.90
11399;DHT22;5755;48.116;11.608;2022-10-18T18:54:13;16.70;99.90
11399;DHT22;5755;48.116;11.608;2022-10-18T18:56:45;16.60;99.90
11399;DHT22;5755;48.116;11.608;2022-10-18T18:59:13;16.50;99.90
11399;DHT22;5755;48.116;11.608;2022-10-18T19:01:51;16.50;99.90
11399;DHT22;5755;48.116;11.608;2022-10-18T19:04:46;16.40;99.90
11399;DHT22;5755;48.116;11.608;2022-10-18T19:07:33;16.40;99.90
11399;DHT22;5755;48.116;11.608;2022-10-18T19:13:15;16.50;99.90
11399;DHT22;5755;48.116;11.608;2022-10-18T19:15:42;16.60;99.90
11399;DHT22;5755;48.116;11.608;2022-10-18T19:18:09;16.60;99.90
11399;DHT22;5755;48.116;11.608;2022-10-18T19:20:49;16.60;99.90
11399;DHT22;5755;48.116;11.608;2022-10-18T19:23:21;16.60;99.90
11399;DHT22;5755;48.116;11.608;2022-10-18T19:29:28;16.60;99.90
11399;DHT22;5755;48.116;11.608;2022-10-18T19:31:57;16.50;99.90
11399;DHT22;5755;48.116;11.608;2022-10-18T19:34:39;16.50;99.90
11399;DHT22;5755;48.116;11.608;2022-10-18T19:37:12;16.40;99.90
11399;DHT22;5755;48.116;11.608;2022-10-18T19:39:39;16.30;99.90
11399;DHT22;5755;48.116;11.608;2022-10-18T19:42:08;16.20;99.90
11399;DHT22;5755;48.116;11.608;2022-10-18T19:44:37;16.20;99.90
11399;DHT22;5755;48.116;11.608;2022-10-18T19:47:11;16.10;99.90
11399;DHT22;5755;48.116;11.608;2022-10-18T19:49:38;15.90;99.90
11399;DHT22;5755;48.116;11.608;2022-10-18T19:52:28;15.90;99.90
11399;DHT22;5755;48.116;11.608;2022-10-18T19:58:33;15.70;99.90
11399;DHT22;5755;48.116;11.608;2022-10-18T20:07:53;15.50;99.90
11399;DHT22;5755;48.116;11.608;2022-10-18T20:10:23;15.50;99.90
11399;DHT22;5755;48.116;11.608;2022-10-18T20:12:57;15.50;99.90
11399;DHT22;5755;48.116;11.608;2022-10-18T20:15:39;15.40;99.90
11399;DHT22;5755;48.116;11.608;2022-10-18T20:34:47;15.20;99.90
11399;DHT22;5755;48.116;11.608;2022-10-18T20:37:15;15.20;99.90
11399;DHT22;5755;48.116;11.608;2022-10-18T20:49:54;15.00;99.90
11399;DHT22;5755;48.116;11.608;2022-10-18T20:52:45;14.90;99.90
11399;DHT22;5755;48.116;11.608;2022-10-18T20:55:15;14.80;99.90
11399;DHT22;5755;48.116;11.608;2022-10-18T20:57:43;14.80;99.90
11399;DHT22;5755;48.116;11.608;2022-10-18T21:00:11;14.70;99.90
11399;DHT22;5755;48.116;11.608;2022-10-18T21:02:57;14.70;99.90
11399;DHT22;5755;48.116;11.608;2022-10-18T21:05:41;14.60;99.90
11399;DHT22;5755;48.116;11.608;2022-10-18T21:08:09;14.60;99.90
11399;DHT22;5755;48.116;11.608;2022-10-18T21:10:36;14.50;99.90
11399;DHT22;5755;48.116;11.608;2022-10-18T21:13:03;14.50;99.90
11399;DHT22;5755;48.116;11.608;2022-10-18T21:15:30;14.40;99.90
11399;DHT22;5755;48.116;11.608;2022-10-18T21:17:57;14.40;99.90
11399;DHT22;5755;48.116;11.608;2022-10-18T21:20:29;14.50;99.90
11399;DHT22;5755;48.116;11.608;2022-10-18T21:22:58;14.60;99.90
11399;DHT22;5755;48.116;11.608;2022-10-18T21:25:28;14.60;99.90
11399;DHT22;5755;48.116;11.608;2022-10-18T21:28:22;14.60;99.90
11399;DHT22;5755;48.116;11.608;2022-10-18T21:30:52;14.60;99.90
11399;DHT22;5755;48.116;11.608;2022-10-18T21:33:22;14.50;99.90
11399;DHT22;5755;48.116;11.608;2022-10-18T21:35:51;14.40;99.90
11399;DHT22;5755;48.116;11.608;2022-10-18T21:38:22;14.30;99.90
11399;DHT22;5755;48.116;11.608;2022-10-18T21:40:50;14.20;99.90
11399;DHT22;5755;48.116;11.608;2022-10-18T21:43:16;14.30;99.90
11399;DHT22;5755;48.116;11.608;2022-10-18T21:45:43;14.30;99.90
11399;DHT22;5755;48.116;11.608;2022-10-18T21:48:15;14.30;99.90
11399;DHT22;5755;48.116;11.608;2022-10-18T21:50:42;14.20;99.90
11399;DHT22;5755;48.116;11.608;2022-10-18T21:53:10;14.20;99.90
11399;DHT22;5755;48.116;11.608;2022-10-18T21:55:53;14.20;99.90
11399;DHT22;5755;48.116;11.608;2022-10-18T21:58:22;14.10;99.90
11399;DHT22;5755;48.116;11.608;2022-10-18T22:00:51;14.10;99.90
11399;DHT22;5755;48.116;11.608;2022-10-18T22:03:19;14.10;99.90
11399;DHT22;5755;48.116;11.608;2022-10-18T22:05:56;14.20;99.90
11399;DHT22;5755;48.116;11.608;2022-10-18T22:08:23;14.20;99.90
11399;DHT22;5755;48.116;11.608;2022-10-18T22:11:17;14.30;99.90
11399;DHT22;5755;48.116;11.608;2022-10-18T22:13:46;14.40;99.90
11399;DHT22;5755;48.116;11.608;2022-10-18T22:16:16;14.40;99.90
11399;DHT22;5755;48.116;11.608;2022-10-18T22:18:44;14.40;99.90
11399;DHT22;5755;48.116;11.608;2022-10-18T22:31:13;14.50;99.90
11399;DHT22;5755;48.116;11.608;2022-10-18T22:34:27;14.50;99.90
11399;DHT22;5755;48.116;11.608;2022-10-18T22:37:04;14.50;99.90
11399;DHT22;5755;48.116;11.608;2022-10-18T22:39:39;14.50;99.90
11399;DHT22;5755;48.116;11.608;2022-10-18T22:42:21;14.50;99.90
11399;DHT22;5755;48.116;11.608;2022-10-18T22:44:51;14.40;99.90
11399;DHT22;5755;48.116;11.608;2022-10-18T22:47:20;14.40;99.90
11399;DHT22;5755;48.116;11.608;2022-10-18T22:50:39;14.30;99.90
11399;DHT22;5755;48.116;11.608;2022-10-18T22:53:06;14.30;99.90
11399;DHT22;5755;48.116;11.608;2022-10-18T22:55:33;14.40;99.90
11399;DHT22;5755;48.116;11.608;2022-10-18T22:58:04;14.40;99.90
11399;DHT22;5755;48.116;11.608;2022-10-18T23:04:11;14.40;99.90
11399;DHT22;5755;48.116;11.608;2022-10-18T23:06:45;14.40;99.90
11399;DHT22;5755;48.116;11.608;2022-10-18T23:09:25;14.40;99.90
11399;DHT22;5755;48.116;11.608;2022-10-18T23:12:11;14.40;99.90
11399;DHT22;5755;48.116;11.608;2022-10-18T23:14:53;14.50;99.90
11399;DHT22;5755;48.116;11.608;2022-10-18T23:17:24;14.50;99.90
11399;DHT22;5755;48.116;11.608;2022-10-18T23:20:23;14.50;99.90
11399;DHT22;5755;48.116;11.608;2022-10-18T23:23:15;14.60;99.90
11399;DHT22;5755;48.116;11.608;2022-10-18T23:25:57;14.70;99.90
11399;DHT22;5755;48.116;11.608;2022-10-18T23:32:15;14.70;99.90
11399;DHT22;5755;48.116;11.608;2022-10-18T23:38:11;14.70;99.90
11399;DHT22;5755;48.116;11.608;2022-10-18T23:41:11;14.80;99.90
11399;DHT22;5755;48.116;11.608;2022-10-18T23:50:51;14.90;99.90
11399;DHT22;5755;48.116;11.608;2022-10-18T23:53:29;14.90;99.90
11399;DHT22;5755;48.116;11.608;2022-10-18T23:59:32;15.00;99.90
